sensor_id;sensor_type;location;lat;lon;timestamp;P1;P2;P0
47709;PMS7003;33473;51.640;5.892;2023-11-18T00:12:51;30.01;25.62;14.83
47709;PMS7003;33473;51.640;5.892;2023-11-18T00:26:12;27.37;24.21;13.85
47709;PMS7003;33473;51.640;5.892;2023-11-18T00:39:32;30.37;26.06;15.38
47709;PMS7003;33473;51.640;5.892;2023-11-18T00:52:53;27.85;23.55;13.96
47709;PMS7003;33473;51.640;5.892;2023-11-18T01:06:14;27.13;23.77;13.96
47709;PMS7003;33473;51.640;5.892;2023-11-18T01:19:34;27.25;24.32;14.51
47709;PMS7003;33473;51.640;5.892;2023-11-18T01:32:55;27.85;24.53;14.18
47709;PMS7003;33473;51.640;5.892;2023-11-18T01:46:15;22.33;20.83;12.65
47709;PMS7003;33473;51.640;5.892;2023-11-18T01:59:35;29.29;24.43;14.07
47709;PMS7003;33473;51.640;5.892;2023-11-18T02:12:56;29.89;25.73;15.05
47709;PMS7003;33473;51.640;5.892;2023-11-18T02:26:16;29.29;25.73;14.94
47709;PMS7003;33473;51.640;5.892;2023-11-18T02:39:35;30.37;26.17;15.27
47709;PMS7003;33473;51.640;5.892;2023-11-18T02:52:57;31.81;27.15;15.81
47709;PMS7003;33473;51.640;5.892;2023-11-18T03:06:18;31.69;26.93;15.92
47709;PMS7003;33473;51.640;5.892;2023-11-18T03:19:39;31.21;26.39;15.92
47709;PMS7003;33473;51.640;5.892;2023-11-18T03:33:01;32.41;27.04;15.71
47709;PMS7003;33473;51.640;5.892;2023-11-18T03:46:22;30.85;26.28;15.92
47709;PMS7003;33473;51.640;5.892;2023-11-18T03:59:43;30.01;26.17;15.81
47709;PMS7003;33473;51.640;5.892;2023-11-18T04:13:04;29.89;25.73;15.38
47709;PMS7003;33473;51.640;5.892;2023-11-18T04:26:26;29.77;25.84;15.49
47709;PMS7003;33473;51.640;5.892;2023-11-18T04:39:47;30.25;26.06;15.6
47709;PMS7003;33473;51.640;5.892;2023-11-18T04:53:08;28.81;25.3;15.27
47709;PMS7003;33473;51.640;5.892;2023-11-18T05:06:28;29.65;26.06;16.14
47709;PMS7003;33473;51.640;5.892;2023-11-18T05:19:48;30.13;25.84;15.81
47709;PMS7003;33473;51.640;5.892;2023-11-18T05:33:09;30.37;26.17;15.92
47709;PMS7003;33473;51.640;5.892;2023-11-18T05:46:29;29.77;25.52;15.81
47709;PMS7003;33473;51.640;5.892;2023-11-18T05:59:48;27.97;24.75;15.27
47709;PMS7003;33473;51.640;5.892;2023-11-18T06:13:09;27.13;23.55;14.4
47709;PMS7003;33473;51.640;5.892;2023-11-18T06:26:31;25.81;22.57;13.96
47709;PMS7003;33473;51.640;5.892;2023-11-18T06:39:51;24.49;22.25;13.31
47709;PMS7003;33473;51.640;5.892;2023-11-18T06:53:12;23.53;21.37;13.2
47709;PMS7003;33473;51.640;5.892;2023-11-18T07:06:33;21.97;20.94;13.09
47709;PMS7003;33473;51.640;5.892;2023-11-18T07:19:54;23.41;21.7;13.31
47709;PMS7003;33473;51.640;5.892;2023-11-18T07:33:16;22.81;20.72;12.65
47709;PMS7003;33473;51.640;5.892;2023-11-18T07:46:37;19.33;19.19;12.0
47709;PMS7003;33473;51.640;5.892;2023-11-18T07:59:57;19.45;19.52;12.11
47709;PMS7003;33473;51.640;5.892;2023-11-18T08:13:18;20.65;19.3;11.78
47709;PMS7003;33473;51.640;5.892;2023-11-18T08:26:39;19.09;18.76;11.24
47709;PMS7003;33473;51.640;5.892;2023-11-18T08:39:59;19.09;18.54;10.91
47709;PMS7003;33473;51.640;5.892;2023-11-18T08:53:20;18.01;18.43;10.58
47709;PMS7003;33473;51.640;5.892;2023-11-18T09:06:40;16.09;17.34;10.36
47709;PMS7003;33473;51.640;5.892;2023-11-18T09:20:01;16.09;17.34;10.04
47709;PMS7003;33473;51.640;5.892;2023-11-18T09:33:21;13.93;15.71;9.27
47709;PMS7003;33473;51.640;5.892;2023-11-18T09:46:42;14.17;15.38;9.06
47709;PMS7003;33473;51.640;5.892;2023-11-18T10:00:03;11.29;13.31;8.29
47709;PMS7003;33473;51.640;5.892;2023-11-18T10:13:23;9.49;11.02;6.88
47709;PMS7003;33473;51.640;5.892;2023-11-18T10:26:44;9.01;11.02;6.99
47709;PMS7003;33473;51.640;5.892;2023-11-18T10:40:05;8.53;9.6;6.44
47709;PMS7003;33473;51.640;5.892;2023-11-18T10:53:27;7.93;9.27;6.11
47709;PMS7003;33473;51.640;5.892;2023-11-18T11:06:48;6.61;8.95;6.0
47709;PMS7003;33473;51.640;5.892;2023-11-18T11:20:08;6.85;8.95;5.9
47709;PMS7003;33473;51.640;5.892;2023-11-18T11:33:29;6.13;8.73;5.46
47709;PMS7003;33473;51.640;5.892;2023-11-18T11:46:49;7.81;8.62;5.79
47709;PMS7003;33473;51.640;5.892;2023-11-18T12:00:08;7.09;8.18;5.35
47709;PMS7003;33473;51.640;5.892;2023-11-18T12:13:30;6.01;8.29;5.57
47709;PMS7003;33473;51.640;5.892;2023-11-18T12:26:51;5.65;7.75;5.57
47709;PMS7003;33473;51.640;5.892;2023-11-18T12:40:11;4.45;6.55;5.02
47709;PMS7003;33473;51.640;5.892;2023-11-18T12:53:32;3.73;5.68;4.15
47709;PMS7003;33473;51.640;5.892;2023-11-18T13:06:53;1.08;4.15;3.06
47709;PMS7003;33473;51.640;5.892;2023-11-18T13:20:13;0.36;3.28;2.41
47709;PMS7003;33473;51.640;5.892;2023-11-18T13:33:34;2.16;5.02;3.28
47709;PMS7003;33473;51.640;5.892;2023-11-18T13:46:54;0.84;2.73;1.86
47709;PMS7003;33473;51.640;5.892;2023-11-18T14:00:15;0.48;3.39;2.52
47709;PMS7003;33473;51.640;5.892;2023-11-18T14:13:36;3.97;5.68;4.48
47709;PMS7003;33473;51.640;5.892;2023-11-18T14:26:58;1.56;4.15;2.84
47709;PMS7003;33473;51.640;5.892;2023-11-18T14:40:19;1.68;4.7;3.82
47709;PMS7003;33473;51.640;5.892;2023-11-18T14:53:40;0.36;3.06;2.41
47709;PMS7003;33473;51.640;5.892;2023-11-18T15:07:00;0.01;3.06;2.41
47709;PMS7003;33473;51.640;5.892;2023-11-18T15:20:21;0.84;3.39;2.52
47709;PMS7003;33473;51.640;5.892;2023-11-18T15:33:42;0.0;3.17;2.52
47709;PMS7003;33473;51.640;5.892;2023-11-18T15:47:02;2.04;5.13;3.93
47709;PMS7003;33473;51.640;5.892;2023-11-18T16:00:23;0.72;3.93;3.28
47709;PMS7003;33473;51.640;5.892;2023-11-18T16:13:43;0.84;4.04;3.28
47709;PMS7003;33473;51.640;5.892;2023-11-18T16:27:04;5.77;8.08;5.9
47709;PMS7003;33473;51.640;5.892;2023-11-18T16:40:24;2.04;4.26;3.39
47709;PMS7003;33473;51.640;5.892;2023-11-18T16:53:44;0.0;3.28;2.73
47709;PMS7003;33473;51.640;5.892;2023-11-18T17:07:05;0.01;2.73;2.3
47709;PMS7003;33473;51.640;5.892;2023-11-18T17:20:26;0.0;2.73;2.19
47709;PMS7003;33473;51.640;5.892;2023-11-18T17:33:46;0.96;4.04;3.28
47709;PMS7003;33473;51.640;5.892;2023-11-18T17:47:07;0.01;2.52;2.3
47709;PMS7003;33473;51.640;5.892;2023-11-18T18:00:27;2.04;5.13;4.15
47709;PMS7003;33473;51.640;5.892;2023-11-18T18:13:47;0.48;3.61;3.17
47709;PMS7003;33473;51.640;5.892;2023-11-18T18:27:06;2.4;4.04;3.28
47709;PMS7003;33473;51.640;5.892;2023-11-18T18:40:26;0.72;3.82;3.28
47709;PMS7003;33473;51.640;5.892;2023-11-18T18:53:47;0.6;3.82;3.39
47709;PMS7003;33473;51.640;5.892;2023-11-18T19:07:09;1.32;4.37;3.82
47709;PMS7003;33473;51.640;5.892;2023-11-18T19:20:30;1.32;4.48;3.82
47709;PMS7003;33473;51.640;5.892;2023-11-18T19:33:50;2.4;5.46;4.37
47709;PMS7003;33473;51.640;5.892;2023-11-18T19:47:11;1.32;4.48;3.93
47709;PMS7003;33473;51.640;5.892;2023-11-18T20:00:32;2.88;5.9;4.8
47709;PMS7003;33473;51.640;5.892;2023-11-18T20:13:53;2.28;5.24;4.48
47709;PMS7003;33473;51.640;5.892;2023-11-18T20:27:15;1.8;4.91;4.15
47709;PMS7003;33473;51.640;5.892;2023-11-18T20:40:36;2.28;5.24;4.37
47709;PMS7003;33473;51.640;5.892;2023-11-18T20:53:56;3.6;6.55;5.35
47709;PMS7003;33473;51.640;5.892;2023-11-18T21:07:17;6.01;7.86;6.22
47709;PMS7003;33473;51.640;5.892;2023-11-18T21:20:37;4.57;7.42;6.0
47709;PMS7003;33473;51.640;5.892;2023-11-18T21:33:58;5.41;8.08;6.55
47709;PMS7003;33473;51.640;5.892;2023-11-18T21:47:19;4.69;7.42;5.9
47709;PMS7003;33473;51.640;5.892;2023-11-18T22:00:41;5.17;7.75;6.55
47709;PMS7003;33473;51.640;5.892;2023-11-18T22:14:00;5.29;8.08;6.33
47709;PMS7003;33473;51.640;5.892;2023-11-18T22:27:22;5.77;8.51;6.88
47709;PMS7003;33473;51.640;5.892;2023-11-18T22:40:41;5.29;8.08;6.44
47709;PMS7003;33473;51.640;5.892;2023-11-18T22:54:03;5.53;8.29;6.44
47709;PMS7003;33473;51.640;5.892;2023-11-18T23:07:24;5.29;8.08;6.55
47709;PMS7003;33473;51.640;5.892;2023-11-18T23:20:44;5.17;7.86;6.44
47709;PMS7003;33473;51.640;5.892;2023-11-18T23:34:05;6.13;7.97;6.22
47709;PMS7003;33473;51.640;5.892;2023-11-18T23:47:25;5.53;7.75;6.33
